This is the latest recevied weather packets stored in our database for station/object K4ROM-1. If no packets are shown the sender has not sent any weather packets the latest 10 day(s).
| Time | Temp. | Humidity | Pressure | Rain* | Wind** | Luminosity | Snow |
|---|---|---|---|---|---|---|---|
| 1777522204 | 19.44° C | 90% | 1010.4 hPa | 0 mm | 0 m/s | - | - |
| 1777521603 | 19.44° C | 89% | 1010.4 hPa | 0 mm | 0 m/s | - | - |
| 1777521004 | 18.89° C | 93% | 1010.4 hPa | 0 mm | 0.45 m/s, 33° | - | - |
| 1777520403 | 18.89° C | 94% | 1010.3 hPa | 0 mm | 0 m/s | - | - |
| 1777519803 | 18.89° C | 94% | 1010.2 hPa | 0 mm | 0.45 m/s, 257° | - | - |
| 1777519203 | 18.89° C | 94% | 1010.2 hPa | 0 mm | 0 m/s | - | - |
| 1777518603 | 19.44° C | 94% | 1010.3 hPa | 0 mm | 0.45 m/s, 252° | - | - |
| 1777518003 | 19.44° C | 94% | 1010.2 hPa | 0 mm | 0.45 m/s, 253° | - | - |
| 1777517403 | 19.44° C | 94% | 1010.1 hPa | 0 mm | 0 m/s | - | - |
| 1777516803 | 19.44° C | 94% | 1010.2 hPa | 0 mm | 0.45 m/s, 241° | - | - |
| 1777516204 | 20° C | 93% | 1010.1 hPa | 0 mm | 0 m/s | - | - |
| 1777515603 | 20° C | 93% | 1010.1 hPa | 1.02 mm | 0.45 m/s, 201° | - | - |
| 1777515003 | 20.56° C | 92% | 1010.3 hPa | 5.84 mm | 0.89 m/s, 266° | - | - |
| 1777514403 | 21.67° C | 82% | 1009.9 hPa | 0 mm | 0.45 m/s, 257° | - | - |
| 1777513803 | 21.11° C | 81% | 1009.4 hPa | 0 mm | 0 m/s | - | - |
| 1777513203 | 21.67° C | 80% | 1009.5 hPa | 0 mm | 0.45 m/s, 329° | - | - |
| 1777512603 | 21.67° C | 79% | 1009.5 hPa | 0 mm | 0 m/s | - | - |
| 1777512003 | 21.67° C | 79% | 1009.3 hPa | 0 mm | 0 m/s | - | - |
| 1777511403 | 21.67° C | 79% | 1009.2 hPa | 0 mm | 0 m/s | - | - |
| 1777510803 | 21.11° C | 81% | 1009.4 hPa | 0 mm | 0 m/s | - | - |
| 1777510203 | 22.22° C | 77% | 1009 hPa | 0 mm | 0 m/s | - | - |
| 1777509604 | 22.22° C | 76% | 1008.8 hPa | 0 mm | 0 m/s | - | - |
| 1777509003 | 22.78° C | 75% | 1008.9 hPa | 0 mm | 0 m/s | - | - |
| 1777508403 | 22.78° C | 73% | 1008.8 hPa | 0 mm | 0 m/s | - | - |
| 1777507803 | 23.33° C | 72% | 1008.6 hPa | 0 mm | 0 m/s | - | - |
* Rain latest hour (hover to see other rain measurements)
** Current wind speed in m/s (hover to see current wind gust speed)